KOMK/OMK METAR and TAF weather

Enter ICAO airport designator
Station Type Date Time Source
KOMK METAR 2021/03/08 14:53 UTC NOAA

KOMK 081453Z AUTO 01008KT 10SM CLR M02/M08 A3014 RMK AO2 SLP219 T10221078 58002


Station Type Date Time Source
KOMK Decoded METAR 2021/03/08 14:53 UTC NOAA

OMAK AIRPORT, WA, United States (KOMK) 48-28N 119-31W 395M
Mar 08, 2021 - 09:53 AM EST / 2021.03.08 1453 UTC
Wind: from the N (010 degrees) at 9 MPH (8 KT):0
Visibility: 10 mile(s):0
Sky conditions: clear
Temperature: 28.0 F (-2.2 C)
Windchill: 19 F (-7 C):1
Dew Point: 18.0 F (-7.8 C)
Relative Humidity: 65%
Pressure (altimeter): 30.14 in. Hg (1020 hPa)
Pressure tendency: 0.01 inches (0.2 hPa) lower than three hours ago
ob: KOMK 081453Z AUTO 01008KT 10SM CLR M02/M08 A3014 RMK AO2 SLP219 T10221078 58002
cycle: 15

Station Type Date Time Source
KOMK TAF UTC NOAA

Error!

Example: see airport list